Home > Products > Valid Products > TAF

000
FTUS46 KPDT 030300 AAA
TAFYKM
TAF AMD
KYKM 030308Z 0303/0324 29014G23KT P6SM SCT080
      TEMPO 0303/0306 VRB25G37KT -RA BKN070 BKN100
     FM030600 30011KT P6SM SKC
     FM030900 28006KT P6SM SCT100
     FM031800 35006KT P6SM FEW080=



000
FTUS46 KPDT 030300 AAA
TAFRDM
TAF AMD
KRDM 030307Z 0303/0324 32015G24KT P6SM SKC
     FM030700 VRB05KT P6SM SKC
     FM032100 34010G15KT P6SM SKC=



000
FTUS46 KPDT 030300 AAB
TAFPDT
TAF AMD
KPDT 030307Z 0303/0324 27027G37KT P6SM SKC
     FM030600 25014KT P6SM SCT100
     FM031600 25011KT P6SM FEW100
     FM032100 32010KT P6SM SKC=



000
FTUS46 KPDT 030100 AAA
TAFPDT
TAF AMD
KPDT 030100Z 0301/0324 27022G32KT P6SM SKC
     FM030300 26020G28KT P6SM FEW070
     FM031000 25014KT P6SM SCT100
     FM031600 25011KT P6SM FEW100
     FM032100 32010KT P6SM SKC=



000
FTUS46 KPDT 022300
TAFYKM
TAF
KYKM 022322Z 0300/0324 29014G23KT P6SM SCT080
     FM030600 30011KT P6SM SKC
     FM030900 28006KT P6SM SCT100
     FM031800 35006KT P6SM FEW080=



000
FTUS46 KPDT 022300
TAFPDT
TAF
KPDT 022322Z 0300/0324 27016G24KT P6SM SKC
     FM030200 26020G28KT P6SM FEW070
     FM031000 25014KT P6SM SCT100
     FM031600 25011KT P6SM FEW100
     FM032100 32010KT P6SM SKC=



000
FTUS46 KPDT 022300
TAFDLS
TAF
KDLS 022322Z 0300/0324 31024G33KT P6SM SCT060
     FM030300 31015G23KT P6SM SKC
     FM030900 29011KT P6SM SKC
     FM031600 30011G16KT P6SM SKC
     FM031900 31014G21KT P6SM SKC=



000
FTUS46 KPDT 022300
TAFPSC
TAF
KPSC 022322Z 0300/0324 25011KT P6SM SKC
     FM030200 27015G23KT P6SM FEW090
     FM030700 24011KT P6SM FEW090
     FM031900 VRB06KT P6SM SKC=



000
FTUS46 KPDT 022300
TAFRDM
TAF
KRDM 022322Z 0300/0324 32015G24KT P6SM SKC
     FM030300 32011KT P6SM SKC
     FM030700 VRB05KT P6SM SKC
     FM032100 34010G15KT P6SM SKC=



000
FTUS46 KPDT 022300
TAFALW
TAF
KALW 022322Z 0300/0324 24014G22KT P6SM SKC
     FM030200 24017G25KT P6SM FEW080
     FM030600 21014KT P6SM SCT070
     FM030900 20011KT P6SM SCT080
     FM031900 23009KT P6SM FEW090=



000
FTUS46 KPDT 021700
TAFYKM
TAF
KYKM 021725Z 0218/0318 VRB06KT P6SM SKC
     FM022200 29014G23KT P6SM FEW080
     FM030600 30011KT P6SM SKC
     FM030900 28006KT P6SM SKC=



000
FTUS46 KPDT 021700
TAFDLS
TAF
KDLS 021725Z 0218/0318 31012G20KT P6SM SKC
     FM022100 32020G30KT P6SM SCT050
     FM030300 31015G25KT P6SM SKC
     FM030900 30009KT P6SM SKC
     FM031600 30011G16KT P6SM SKC=



000
FTUS46 KPDT 021700
TAFPDT
TAF
KPDT 021725Z 0218/0318 27011G16KT P6SM SKC
     FM022000 27015G25KT P6SM SKC
     FM022300 26020G30KT P6SM FEW060 FEW150
     FM030900 25015KT P6SM FEW060
     FM031600 25011KT P6SM SKC=



000
FTUS46 KPDT 021700
TAFALW
TAF
KALW 021725Z 0218/0318 22013KT P6SM SKC
     FM021900 24014G22KT P6SM FEW060
     FM030000 24017G25KT P6SM FEW060 FEW150
     FM030600 21014KT P6SM FEW060 FEW100
     FM030900 20011KT P6SM FEW060=



000
FTUS46 KPDT 021700
TAFRDM
TAF
KRDM 021725Z 0218/0318 VRB04KT P6SM SKC
     FM022100 33015G24KT P6SM SKC
     FM030300 32011KT P6SM SKC
     FM030700 VRB05KT P6SM SKC=



000
FTUS46 KPDT 021700
TAFPSC
TAF
KPSC 021725Z 0218/0318 24007KT P6SM SKC
     FM022200 25014G20KT P6SM FEW090
     FM030200 28017G25KT P6SM FEW060
     FM030600 24011G16KT P6SM FEW070
     FM030900 22011KT P6SM FEW070=



000
FTUS46 KPDT 021100
TAFRDM
TAF
KRDM 021121Z 0212/0312 VRB04KT P6SM SKC
     FM022000 32012G22KT P6SM SKC
     FM030300 32010KT P6SM SKC=



000
FTUS46 KPDT 021100
TAFPSC
TAF
KPSC 021121Z 0212/0312 VRB03KT P6SM FEW250
     FM021500 22007KT P6SM SCT250
     FM022200 25014G22KT P6SM SCT200
     FM030200 28015G25KT P6SM FEW060 SCT200
     FM030600 24011KT P6SM SKC=



000
FTUS46 KPDT 021100
TAFALW
TAF
KALW 021121Z 0212/0312 17007KT P6SM SKC
     FM021500 22010KT P6SM SCT150 SCT250
     FM021900 24014G22KT P6SM SCT100 SCT200
     FM030400 21012KT P6SM FEW060 SCT100
     FM030700 20011KT P6SM SKC=



000
FTUS46 KPDT 021100
TAFPDT
TAF
KPDT 021121Z 0212/0312 14006KT P6SM SKC
     FM021700 27010KT P6SM SCT150
     FM022000 27015G25KT P6SM SCT100 SCT200
     FM030200 26020G28KT P6SM FEW060 SCT100
     FM030900 26011KT P6SM SKC=



000
FTUS46 KPDT 021100
TAFDLS
TAF
KDLS 021121Z 0212/0312 VRB05KT P6SM SKC
     FM021600 30012G20KT P6SM SCT200
     FM022000 31020G30KT P6SM SCT060 SCT200
     FM030300 30015G25KT P6SM SKC
     FM030900 30011KT P6SM SKC=



000
FTUS46 KPDT 021100
TAFYKM
TAF
KYKM 021121Z 0212/0312 28007KT P6SM SCT250
     FM021500 VRB04KT P6SM SKC
     FM022200 29014G20KT P6SM FEW080
     FM030500 32008KT P6SM SKC=



000
FTUS46 KPDT 020500
TAFYKM
TAF
KYKM 020520Z 0206/0306 35007KT P6SM SCT250
     FM021500 VRB04KT P6SM SKC
     FM022200 27014G20KT P6SM SKC=



000
FTUS46 KPDT 020500
TAFRDM
TAF
KRDM 020520Z 0206/0306 16004KT P6SM SKC
     FM022000 32012G22KT P6SM SKC
     FM030300 32010KT P6SM SKC=



000
FTUS46 KPDT 020500
TAFALW
TAF
KALW 020520Z 0206/0306 17007KT P6SM SKC
     FM021500 22010KT P6SM SCT150 SCT250
     FM021900 24014G22KT P6SM SCT100 SCT200
     FM030400 21012KT P6SM FEW060 SCT100=



000
FTUS46 KPDT 020500
TAFDLS
TAF
KDLS 020520Z 0206/0306 29007KT P6SM SKC
     FM021500 30012G20KT P6SM SCT200
     FM022000 31020G30KT P6SM SCT060 SCT200
     FM030300 30015G25KT P6SM SCT060=



000
FTUS46 KPDT 020500
TAFPSC
TAF
KPSC 020520Z 0206/0306 14006KT P6SM SKC
     FM021500 22007KT P6SM SCT250
     FM022200 25014G22KT P6SM SCT200
     FM030200 28015G25KT P6SM FEW060 SCT200=



000
FTUS46 KPDT 020500
TAFPDT
TAF
KPDT 020520Z 0206/0306 16006KT P6SM SKC
     FM021700 27010KT P6SM SCT150
     FM022000 27015G25KT P6SM SCT100 SCT200
     FM030200 26020G28KT P6SM FEW060 SCT100=



000
FTUS46 KPDT 020000 AAA
TAFALW
TAF AMD
KALW 020057Z 0201/0224 22010KT P6SM FEW060
     FM020400 17006KT P6SM SKC
     FM021500 20008KT P6SM SKC
     FM022200 24014G22KT P6SM SCT200=



000
FTUS46 KPDT 012300
TAFYKM
TAF
KYKM 012320Z 0200/0224 VRB05KT P6SM SKC
     FM020300 30008KT P6SM SKC
     FM021500 VRB04KT P6SM SKC
     FM022100 27014G20KT P6SM SKC=



000
FTUS46 KPDT 012300
TAFALW
TAF
KALW 012320Z 0200/0224 22010G16KT P6SM FEW060
     FM020400 17006KT P6SM SKC
     FM021500 20008KT P6SM SKC
     FM022200 24014G22KT P6SM SCT200=



000
FTUS46 KPDT 012300
TAFDLS
TAF
KDLS 012320Z 0200/0224 31011G20KT P6SM FEW060
     FM020400 30007KT P6SM SKC
     FM021500 30014KT P6SM SCT200
     FM022000 31020G30KT P6SM SCT060 SCT200=



000
FTUS46 KPDT 012300
TAFPSC
TAF
KPSC 012320Z 0200/0224 22008KT P6SM SKC
     FM020400 18004KT P6SM SKC
     FM021500 22008KT P6SM SKC
     FM022200 25014G22KT P6SM SCT200=



000
FTUS46 KPDT 012300
TAFRDM
TAF
KRDM 012320Z 0200/0224 33007KT P6SM SKC
     FM020500 VRB04KT P6SM SKC
     FM022000 32012G20KT P6SM SKC=



000
FTUS46 KPDT 012300
TAFPDT
TAF
KPDT 012320Z 0200/0224 20008KT P6SM FEW060
     FM020400 19008KT P6SM SKC
     FM021700 27010KT P6SM SCT100
     FM022000 27015G25KT P6SM SCT100 SCT200=



000
FTUS46 KPDT 011700
TAFRDM
TAF
KRDM 011720Z 0118/0218 VRB05KT P6SM SKC
     FM012100 33007KT P6SM SKC
     FM020500 VRB04KT P6SM SKC=



000
FTUS46 KPDT 011700
TAFPSC
TAF
KPSC 011720Z 0118/0218 VRB05KT P6SM SKC
     FM011900 22008KT P6SM SKC
     FM020400 18004KT P6SM SKC=



000
FTUS46 KPDT 011700
TAFALW
TAF
KALW 011720Z 0118/0218 22010KT P6SM SCT070
     FM012000 22008KT P6SM SKC
     FM020400 17006KT P6SM SKC=



000
FTUS46 KPDT 011700
TAFDLS
TAF
KDLS 011720Z 0118/0218 31011KT P6SM SKC
     FM020400 30007KT P6SM SKC
     FM021700 30012KT P6SM SKC=



000
FTUS46 KPDT 011700
TAFPDT
TAF
KPDT 011720Z 0118/0218 22010KT P6SM SCT070
     FM012000 26010KT P6SM SKC
     FM020400 19008KT P6SM SKC
     FM021700 27010KT P6SM SCT100=



000
FTUS46 KPDT 011700
TAFYKM
TAF
KYKM 011720Z 0118/0218 VRB05KT P6SM SKC
     FM020300 30008KT P6SM SKC=



000
FTUS46 KPDT 011100
TAFPSC
TAF
KPSC 011120Z 0112/0212 VRB05KT P6SM FEW070
     FM011900 22008KT P6SM SKC
     FM020400 18004KT P6SM SKC=



000
FTUS46 KPDT 011100
TAFDLS
TAF
KDLS 011120Z 0112/0212 VRB04KT P6SM FEW050
     FM011900 31011KT P6SM SKC
     FM020400 30007KT P6SM SKC=



000
FTUS46 KPDT 011100
TAFPDT
TAF
KPDT 011120Z 0112/0212 15005KT P6SM BKN060
     FM011600 22006KT P6SM SCT070
     FM012000 26010KT P6SM SKC
     FM020400 19008KT P6SM SKC=



000
FTUS46 KPDT 011100
TAFALW
TAF
KALW 011120Z 0112/0212 18008KT P6SM BKN070
     FM011600 20006KT P6SM SCT070
     FM012000 22008KT P6SM SKC
     FM020400 17006KT P6SM SKC=



000
FTUS46 KPDT 011100
TAFRDM
TAF
KRDM 011120Z 0112/0212 VRB04KT P6SM FEW040
     FM011500 VRB05KT P6SM SKC
     FM012100 33007KT P6SM SKC
     FM020500 VRB04KT P6SM SKC=



000
FTUS46 KPDT 011100
TAFYKM
TAF
KYKM 011120Z 0112/0212 27005KT P6SM FEW090
     FM011600 VRB05KT P6SM SKC
     FM020300 30008KT P6SM SKC=



000
FTUS46 KPDT 010500
TAFALW
TAF
KALW 010520Z 0106/0206 18008KT P6SM FEW200
     FM011800 22008KT P6SM SKC
     FM020400 16006KT P6SM SKC=



000
FTUS46 KPDT 010500
TAFDLS
TAF
KDLS 010520Z 0106/0206 29009KT P6SM FEW200
     FM011900 31014KT P6SM SKC
     FM020400 30010KT P6SM SKC=



000
FTUS46 KPDT 010500
TAFYKM
TAF
KYKM 010520Z 0106/0206 27005KT P6SM FEW150
     FM011600 VRB05KT P6SM SKC
     FM020300 32008KT P6SM SKC=



000
FTUS46 KPDT 010500
TAFPDT
TAF
KPDT 010520Z 0106/0206 24012KT P6SM FEW200
     FM011200 15005KT P6SM SKC
     FM011800 26010KT P6SM SKC
     FM020400 17008KT P6SM SKC=



000
FTUS46 KPDT 010500
TAFPSC
TAF
KPSC 010520Z 0106/0206 VRB05KT P6SM FEW150
     FM011900 22008KT P6SM SKC
     FM020400 18004KT P6SM SKC=



000
FTUS46 KPDT 010500
TAFRDM
TAF
KRDM 010520Z 0106/0206 VRB04KT P6SM SKC
     FM012100 33007KT P6SM SKC=



000
FTUS46 KPDT 312300
TAFPDT
TAF
KPDT 312320Z 0100/0124 27015G25KT P6SM FEW070
     FM010400 22010KT P6SM FEW200
     FM010800 15005KT P6SM SKC
     FM011800 26010KT P6SM SKC=



000
FTUS46 KPDT 312300
TAFALW
TAF
KALW 312320Z 0100/0124 22013G20KT P6SM FEW060
     FM010400 18008KT P6SM FEW200
     FM011800 22008KT P6SM SKC=



000
FTUS46 KPDT 312300
TAFRDM
TAF
KRDM 312320Z 0100/0124 30008KT P6SM SKC
     FM010400 VRB04KT P6SM SKC
     FM012100 31007KT P6SM SKC=



000
FTUS46 KPDT 312300
TAFDLS
TAF
KDLS 312320Z 0100/0124 31014KT P6SM SCT070
     FM010500 29009KT P6SM FEW200
     FM011900 31014KT P6SM SKC=



000
FTUS46 KPDT 312300
TAFPSC
TAF
KPSC 312320Z 0100/0124 29010KT P6SM FEW070
     FM010400 VRB05KT P6SM FEW150
     FM011900 22008KT P6SM SKC=



000
FTUS46 KPDT 312300
TAFYKM
TAF
KYKM 312320Z 0100/0124 30010KT P6SM FEW070
     FM010500 27005KT P6SM FEW150
     FM011600 VRB05KT P6SM SKC=



000
FTUS46 KPDT 312100 AAA
TAFDLS
TAF AMD
KDLS 312158Z 3122/0118 31014KT P6SM SCT070
     FM010500 29009KT P6SM FEW150=



000
FTUS46 KPDT 312000 AAA
TAFALW
TAF AMD
KALW 312041Z 3121/0118 22013G20KT P6SM FEW060
     FM010400 18008KT P6SM SKC=



000
FTUS46 KPDT 312000 AAA
TAFYKM
TAF AMD
KYKM 312040Z 3121/0118 VRB04KT P6SM FEW070 SCT150
     FM312300 33010KT P6SM FEW070 SCT150
     FM010500 27005KT P6SM SKC=



000
FTUS46 KPDT 312000 AAA
TAFRDM
TAF AMD
KRDM 312039Z 3121/0118 31010KT P6SM SKC
     FM010400 VRB04KT P6SM SKC=



000
FTUS46 KPDT 311700
TAFRDM
TAF
KRDM 311720Z 3118/0118 30008KT P6SM BKN045
     FM312100 32010KT P6SM SCT050
     FM010400 VRB04KT P6SM SKC=



000
FTUS46 KPDT 311700
TAFYKM
TAF
KYKM 311720Z 3118/0118 VRB04KT P6SM SCT150
     FM312300 33010KT P6SM SCT150
     FM010500 27005KT P6SM SKC=



000
FTUS46 KPDT 311700
TAFALW
TAF
KALW 311720Z 3118/0118 22012KT P6SM SCT070
     FM312000 22013G20KT P6SM FEW070
     FM010400 18008KT P6SM SKC=



000
FTUS46 KPDT 311700
TAFPSC
TAF
KPSC 311720Z 3118/0118 20008KT P6SM FEW080
     FM312000 24010KT P6SM FEW200
     FM312300 32012KT P6SM FEW200
     FM010400 VRB05KT P6SM SKC=



000
FTUS46 KPDT 311700
TAFPDT
TAF
KPDT 311720Z 3118/0118 25012KT P6SM SCT040
     FM312000 27015G25KT P6SM FEW060
     FM010400 22010KT P6SM SKC
     FM010800 15005KT P6SM SKC=



000
FTUS46 KPDT 311700
TAFDLS
TAF
KDLS 311720Z 3118/0118 31011KT P6SM FEW060
     FM312000 31018G30KT P6SM FEW070
     FM010500 29009KT P6SM FEW150=



000
FTUS46 KPDT 311100
TAFRDM
TAF
KRDM 311120Z 3112/0112 VRB04KT P6SM BKN045
     FM312000 32010KT P6SM SCT050 SCT200
     FM010400 VRB04KT P6SM FEW200=



000
FTUS46 KPDT 311100
TAFPSC
TAF
KPSC 311120Z 3112/0112 21008KT P6SM SCT090
     FM311900 24014KT P6SM FEW100 SCT200
     FM010300 23006KT P6SM SKC=



000
FTUS46 KPDT 311100
TAFALW
TAF
KALW 311120Z 3112/0112 19008KT P6SM BKN090
     FM311500 22011KT P6SM SCT100
     FM311900 22013G20KT P6SM FEW090
     FM010400 18008KT P6SM SKC=



000
FTUS46 KPDT 311100
TAFDLS
TAF
KDLS 311120Z 3112/0112 29011KT P6SM SCT200
     FM311700 31015KT P6SM SCT200
     FM312000 31020G30KT P6SM FEW080 SCT200
     FM010400 29011KT P6SM FEW150=



000
FTUS46 KPDT 311100
TAFYKM
TAF
KYKM 311120Z 3112/0112 29005KT P6SM SCT200
     FM311600 VRB04KT P6SM FEW100 SCT200
     FM312200 33010KT P6SM FEW100 SCT150
     FM010500 27005KT P6SM SKC=



000
FTUS46 KPDT 311100
TAFPDT
TAF
KPDT 311120Z 3112/0112 21010KT P6SM SCT090 SCT150
     FM311600 25011KT P6SM FEW080
     FM311900 27015G25KT P6SM FEW090
     FM010500 22011KT P6SM SCT090=



000
FTUS46 KPDT 310900 AAA
TAFPDT
TAF AMD
KPDT 310958Z 3110/0106 21010KT P6SM SCT090 BKN150
     FM311500 25012G20KT P6SM FEW080
     FM311900 27015G30KT P6SM FEW090
     FM010400 22012KT P6SM SCT090=



000
FTUS46 KPDT 310700 AAA
TAFPDT
TAF AMD
KPDT 310734Z 3108/0106 25014G24KT P6SM SCT090 BKN150
     FM311500 25012G20KT P6SM FEW080
     FM311900 27015G30KT P6SM FEW090
     FM010400 22012KT P6SM SCT090=



000
FTUS46 KPDT 310500
TAFDLS
TAF
KDLS 310520Z 3106/0106 29012KT P6SM SKC
     FM311700 31015KT P6SM SKC
     FM312000 31020G30KT P6SM FEW080 SCT250
     FM010300 29012KT P6SM FEW150=



000
FTUS46 KPDT 310500
TAFPDT
TAF
KPDT 310520Z 3106/0106 21008KT P6SM SCT090 BKN150
     FM311500 25012G20KT P6SM FEW080
     FM311900 27015G30KT P6SM FEW090
     FM010400 22012KT P6SM SCT090=



000
FTUS46 KPDT 310500
TAFPSC
TAF
KPSC 310520Z 3106/0106 23014KT P6SM FEW070
     FM311000 21012KT P6SM FEW100
     FM311500 22012KT P6SM SKC
     FM311900 23014KT P6SM SKC
     FM010300 23006KT P6SM SKC=



000
FTUS46 KPDT 310500
TAFRDM
TAF
KRDM 310520Z 3106/0106 31008KT P6SM SCT060
     FM311200 18004KT P6SM FEW050 SCT120
     FM312000 32010KT P6SM SCT120
     FM010300 VRB04KT P6SM FEW120=



000
FTUS46 KPDT 310500
TAFYKM
TAF
KYKM 310520Z 3106/0106 27005KT P6SM SKC
     FM311600 VRB04KT P6SM FEW100
     FM312200 33010KT P6SM FEW100
     FM010500 27005KT P6SM SKC=



000
FTUS46 KPDT 310500
TAFALW
TAF
KALW 310520Z 3106/0106 19012KT P6SM BKN060 BKN100
     FM311000 19008KT P6SM FEW090
     FM311500 22013KT P6SM FEW100
     FM311900 22013G20KT P6SM FEW090
     FM010400 18008KT P6SM SKC=



    US Dept of Commerce
    National Oceanic and Atmospheric Administration
    National Weather Service
    1325 East West Highway
    Silver Spring, MD 20910
    Page Author: NWS Internet Services Team
Disclaimer
Information Quality
Credits
Glossary
Privacy Policy
Freedom of Information Act (FOIA)
About Us
Career Opportunities